sensor_id;sensor_type;location;lat;lon;timestamp;P1;durP1;ratioP1;P2;durP2;ratioP2
46675;SDS011;32412;51.478;5.694;2023-04-03T00:00:08;11.98;;;7.43;;
46675;SDS011;32412;51.478;5.694;2023-04-03T00:02:35;10.98;;;6.13;;
46675;SDS011;32412;51.478;5.694;2023-04-03T00:05:00;13.45;;;6.45;;
46675;SDS011;32412;51.478;5.694;2023-04-03T00:07:26;8.50;;;6.22;;
46675;SDS011;32412;51.478;5.694;2023-04-03T00:09:52;12.23;;;6.40;;
46675;SDS011;32412;51.478;5.694;2023-04-03T00:12:17;12.30;;;5.78;;
46675;SDS011;32412;51.478;5.694;2023-04-03T00:14:43;9.77;;;5.80;;
46675;SDS011;32412;51.478;5.694;2023-04-03T00:17:09;8.10;;;5.47;;
46675;SDS011;32412;51.478;5.694;2023-04-03T00:19:34;9.55;;;6.20;;
46675;SDS011;32412;51.478;5.694;2023-04-03T00:22:00;10.10;;;5.55;;
46675;SDS011;32412;51.478;5.694;2023-04-03T00:24:26;6.93;;;5.07;;
46675;SDS011;32412;51.478;5.694;2023-04-03T00:26:52;9.50;;;5.57;;
46675;SDS011;32412;51.478;5.694;2023-04-03T00:29:17;11.68;;;5.53;;
46675;SDS011;32412;51.478;5.694;2023-04-03T00:31:43;9.23;;;5.20;;
46675;SDS011;32412;51.478;5.694;2023-04-03T00:34:08;8.75;;;5.75;;
46675;SDS011;32412;51.478;5.694;2023-04-03T00:36:35;10.75;;;5.78;;
46675;SDS011;32412;51.478;5.694;2023-04-03T00:39:00;11.15;;;5.50;;
46675;SDS011;32412;51.478;5.694;2023-04-03T00:41:26;8.15;;;5.43;;
46675;SDS011;32412;51.478;5.694;2023-04-03T00:43:52;13.18;;;5.82;;
46675;SDS011;32412;51.478;5.694;2023-04-03T00:46:17;9.95;;;6.07;;
46675;SDS011;32412;51.478;5.694;2023-04-03T00:48:44;9.13;;;6.15;;
46675;SDS011;32412;51.478;5.694;2023-04-03T00:51:15;9.02;;;6.22;;
46675;SDS011;32412;51.478;5.694;2023-04-03T00:56:30;10.27;;;6.03;;
46675;SDS011;32412;51.478;5.694;2023-04-03T00:58:59;10.07;;;5.78;;
46675;SDS011;32412;51.478;5.694;2023-04-03T01:01:26;8.27;;;6.30;;
46675;SDS011;32412;51.478;5.694;2023-04-03T01:03:54;11.13;;;6.20;;
46675;SDS011;32412;51.478;5.694;2023-04-03T01:06:21;10.38;;;6.88;;
46675;SDS011;32412;51.478;5.694;2023-04-03T01:08:51;7.63;;;5.65;;
46675;SDS011;32412;51.478;5.694;2023-04-03T01:11:17;9.23;;;5.55;;
46675;SDS011;32412;51.478;5.694;2023-04-03T01:13:43;8.85;;;5.80;;
46675;SDS011;32412;51.478;5.694;2023-04-03T01:16:09;10.00;;;7.05;;
46675;SDS011;32412;51.478;5.694;2023-04-03T01:18:36;9.57;;;6.85;;
46675;SDS011;32412;51.478;5.694;2023-04-03T01:24:11;10.25;;;6.43;;
46675;SDS011;32412;51.478;5.694;2023-04-03T01:27:00;10.57;;;6.50;;
46675;SDS011;32412;51.478;5.694;2023-04-03T01:29:29;12.07;;;6.13;;
46675;SDS011;32412;51.478;5.694;2023-04-03T01:31:56;9.30;;;6.50;;
46675;SDS011;32412;51.478;5.694;2023-04-03T01:34:24;13.05;;;6.80;;
46675;SDS011;32412;51.478;5.694;2023-04-03T01:36:50;10.52;;;6.80;;
46675;SDS011;32412;51.478;5.694;2023-04-03T01:39:16;9.43;;;7.00;;
46675;SDS011;32412;51.478;5.694;2023-04-03T01:41:42;11.25;;;7.05;;
46675;SDS011;32412;51.478;5.694;2023-04-03T01:44:07;12.68;;;7.10;;
46675;SDS011;32412;51.478;5.694;2023-04-03T01:46:33;13.98;;;8.18;;
46675;SDS011;32412;51.478;5.694;2023-04-03T04:57:15;7.40;;;3.45;;
46675;SDS011;32412;51.478;5.694;2023-04-03T06:01:51;5.93;;;1.90;;
46675;SDS011;32412;51.478;5.694;2023-04-03T06:04:18;4.40;;;2.38;;
46675;SDS011;32412;51.478;5.694;2023-04-03T06:12:51;5.65;;;2.10;;
46675;SDS011;32412;51.478;5.694;2023-04-03T06:20:28;4.93;;;2.65;;
46675;SDS011;32412;51.478;5.694;2023-04-03T06:23:04;3.63;;;2.17;;
46675;SDS011;32412;51.478;5.694;2023-04-03T06:25:33;5.57;;;1.90;;
46675;SDS011;32412;51.478;5.694;2023-04-03T06:27:59;3.78;;;1.70;;
46675;SDS011;32412;51.478;5.694;2023-04-03T06:30:25;3.30;;;1.83;;
46675;SDS011;32412;51.478;5.694;2023-04-03T06:32:52;3.50;;;1.75;;
46675;SDS011;32412;51.478;5.694;2023-04-03T06:35:18;4.75;;;1.70;;
46675;SDS011;32412;51.478;5.694;2023-04-03T06:37:44;7.40;;;1.90;;
46675;SDS011;32412;51.478;5.694;2023-04-03T06:40:14;4.43;;;1.90;;
46675;SDS011;32412;51.478;5.694;2023-04-03T06:42:45;2.70;;;1.60;;
46675;SDS011;32412;51.478;5.694;2023-04-03T06:45:11;5.70;;;2.30;;
46675;SDS011;32412;51.478;5.694;2023-04-03T06:47:37;6.68;;;1.73;;
46675;SDS011;32412;51.478;5.694;2023-04-03T06:50:03;6.22;;;1.95;;
46675;SDS011;32412;51.478;5.694;2023-04-03T06:52:30;13.07;;;2.30;;
46675;SDS011;32412;51.478;5.694;2023-04-03T06:54:56;3.58;;;1.70;;
46675;SDS011;32412;51.478;5.694;2023-04-03T06:57:24;6.85;;;2.22;;
46675;SDS011;32412;51.478;5.694;2023-04-03T06:59:50;7.53;;;1.85;;
46675;SDS011;32412;51.478;5.694;2023-04-03T07:02:16;6.88;;;2.13;;
46675;SDS011;32412;51.478;5.694;2023-04-03T07:04:45;3.38;;;2.00;;
46675;SDS011;32412;51.478;5.694;2023-04-03T07:07:11;13.40;;;1.92;;
46675;SDS011;32412;51.478;5.694;2023-04-03T07:09:38;3.95;;;2.00;;
46675;SDS011;32412;51.478;5.694;2023-04-03T07:12:05;3.42;;;1.73;;
46675;SDS011;32412;51.478;5.694;2023-04-03T07:14:31;3.83;;;1.77;;
46675;SDS011;32412;51.478;5.694;2023-04-03T07:16:56;4.32;;;2.10;;
46675;SDS011;32412;51.478;5.694;2023-04-03T07:19:22;4.60;;;1.80;;
46675;SDS011;32412;51.478;5.694;2023-04-03T07:21:49;4.03;;;1.77;;
46675;SDS011;32412;51.478;5.694;2023-04-03T07:24:15;5.00;;;1.92;;
46675;SDS011;32412;51.478;5.694;2023-04-03T07:26:41;3.78;;;1.50;;
46675;SDS011;32412;51.478;5.694;2023-04-03T07:29:10;5.38;;;1.58;;
46675;SDS011;32412;51.478;5.694;2023-04-03T07:31:36;6.28;;;1.67;;
46675;SDS011;32412;51.478;5.694;2023-04-03T07:34:03;7.28;;;2.13;;
46675;SDS011;32412;51.478;5.694;2023-04-03T07:36:29;5.30;;;1.80;;
46675;SDS011;32412;51.478;5.694;2023-04-03T07:38:58;8.10;;;1.92;;
46675;SDS011;32412;51.478;5.694;2023-04-03T07:41:26;5.78;;;1.60;;
46675;SDS011;32412;51.478;5.694;2023-04-03T07:43:51;4.15;;;1.48;;
46675;SDS011;32412;51.478;5.694;2023-04-03T07:46:18;5.15;;;1.60;;
46675;SDS011;32412;51.478;5.694;2023-04-03T07:48:43;6.88;;;1.58;;
46675;SDS011;32412;51.478;5.694;2023-04-03T07:51:10;6.40;;;1.88;;
46675;SDS011;32412;51.478;5.694;2023-04-03T07:53:36;3.00;;;1.40;;
46675;SDS011;32412;51.478;5.694;2023-04-03T07:56:01;3.40;;;1.70;;
46675;SDS011;32412;51.478;5.694;2023-04-03T07:58:28;2.15;;;1.20;;
46675;SDS011;32412;51.478;5.694;2023-04-03T08:00:54;3.45;;;1.38;;
46675;SDS011;32412;51.478;5.694;2023-04-03T08:03:19;5.57;;;1.63;;
46675;SDS011;32412;51.478;5.694;2023-04-03T08:05:46;5.10;;;1.30;;
46675;SDS011;32412;51.478;5.694;2023-04-03T08:08:14;5.28;;;1.40;;
46675;SDS011;32412;51.478;5.694;2023-04-03T08:10:42;4.63;;;1.40;;
46675;SDS011;32412;51.478;5.694;2023-04-03T08:13:08;4.65;;;1.50;;
46675;SDS011;32412;51.478;5.694;2023-04-03T08:15:35;2.78;;;1.20;;
46675;SDS011;32412;51.478;5.694;2023-04-03T08:18:05;4.30;;;1.13;;
46675;SDS011;32412;51.478;5.694;2023-04-03T08:20:31;4.15;;;1.63;;
46675;SDS011;32412;51.478;5.694;2023-04-03T08:22:57;3.50;;;1.50;;
46675;SDS011;32412;51.478;5.694;2023-04-03T08:25:22;5.53;;;1.55;;
46675;SDS011;32412;51.478;5.694;2023-04-03T08:27:48;5.13;;;1.48;;
46675;SDS011;32412;51.478;5.694;2023-04-03T08:30:14;2.95;;;0.93;;
46675;SDS011;32412;51.478;5.694;2023-04-03T08:32:40;2.50;;;1.13;;
46675;SDS011;32412;51.478;5.694;2023-04-03T08:35:09;4.88;;;1.13;;
46675;SDS011;32412;51.478;5.694;2023-04-03T08:37:38;3.65;;;1.35;;
46675;SDS011;32412;51.478;5.694;2023-04-03T08:40:04;2.78;;;1.10;;
46675;SDS011;32412;51.478;5.694;2023-04-03T08:45:25;2.22;;;1.00;;
46675;SDS011;32412;51.478;5.694;2023-04-03T08:48:06;1.50;;;0.80;;
46675;SDS011;32412;51.478;5.694;2023-04-03T08:50:40;1.67;;;0.98;;
46675;SDS011;32412;51.478;5.694;2023-04-03T08:53:14;2.22;;;0.90;;
46675;SDS011;32412;51.478;5.694;2023-04-03T08:58:21;3.50;;;1.10;;
46675;SDS011;32412;51.478;5.694;2023-04-03T09:01:02;2.58;;;0.85;;
46675;SDS011;32412;51.478;5.694;2023-04-03T09:03:30;5.47;;;1.30;;
46675;SDS011;32412;51.478;5.694;2023-04-03T09:06:21;4.50;;;0.75;;
46675;SDS011;32412;51.478;5.694;2023-04-03T09:11:45;2.17;;;0.80;;
46675;SDS011;32412;51.478;5.694;2023-04-03T09:14:26;1.73;;;0.73;;
46675;SDS011;32412;51.478;5.694;2023-04-03T09:17:00;4.30;;;0.70;;
46675;SDS011;32412;51.478;5.694;2023-04-03T09:22:27;1.80;;;1.02;;
46675;SDS011;32412;51.478;5.694;2023-04-03T09:27:56;5.03;;;0.57;;
46675;SDS011;32412;51.478;5.694;2023-04-03T09:30:23;1.52;;;0.65;;
46675;SDS011;32412;51.478;5.694;2023-04-03T09:32:51;2.95;;;0.70;;
46675;SDS011;32412;51.478;5.694;2023-04-03T09:40:39;1.63;;;0.60;;
46675;SDS011;32412;51.478;5.694;2023-04-03T09:45:47;1.35;;;0.57;;
46675;SDS011;32412;51.478;5.694;2023-04-03T09:48:25;1.90;;;0.55;;
46675;SDS011;32412;51.478;5.694;2023-04-03T09:50:54;2.20;;;0.60;;
46675;SDS011;32412;51.478;5.694;2023-04-03T09:53:29;3.30;;;0.60;;
46675;SDS011;32412;51.478;5.694;2023-04-03T09:56:04;1.33;;;0.65;;
46675;SDS011;32412;51.478;5.694;2023-04-03T09:58:47;2.75;;;0.60;;
46675;SDS011;32412;51.478;5.694;2023-04-03T10:01:39;0.80;;;0.40;;
46675;SDS011;32412;51.478;5.694;2023-04-03T10:04:14;3.67;;;0.57;;
46675;SDS011;32412;51.478;5.694;2023-04-03T10:12:05;0.60;;;0.40;;
46675;SDS011;32412;51.478;5.694;2023-04-03T10:14:36;2.10;;;0.60;;
46675;SDS011;32412;51.478;5.694;2023-04-03T10:22:25;1.58;;;0.50;;
46675;SDS011;32412;51.478;5.694;2023-04-03T10:28:21;10.30;;;1.08;;
46675;SDS011;32412;51.478;5.694;2023-04-03T10:31:26;1.02;;;0.50;;
46675;SDS011;32412;51.478;5.694;2023-04-03T10:37:11;1.42;;;0.68;;
46675;SDS011;32412;51.478;5.694;2023-04-03T10:45:26;1.40;;;0.50;;
46675;SDS011;32412;51.478;5.694;2023-04-03T10:48:16;0.65;;;0.63;;
46675;SDS011;32412;51.478;5.694;2023-04-03T10:57:16;0.65;;;0.50;;
46675;SDS011;32412;51.478;5.694;2023-04-03T10:59:49;0.73;;;0.50;;
46675;SDS011;32412;51.478;5.694;2023-04-03T11:03:12;2.40;;;0.50;;
46675;SDS011;32412;51.478;5.694;2023-04-03T11:06:05;1.25;;;0.40;;
46675;SDS011;32412;51.478;5.694;2023-04-03T11:08:46;1.80;;;0.60;;
46675;SDS011;32412;51.478;5.694;2023-04-03T11:11:24;2.10;;;0.47;;
46675;SDS011;32412;51.478;5.694;2023-04-03T11:16:40;1.88;;;0.70;;
46675;SDS011;32412;51.478;5.694;2023-04-03T11:23:19;1.52;;;0.73;;
46675;SDS011;32412;51.478;5.694;2023-04-03T11:35:08;1.48;;;0.73;;
46675;SDS011;32412;51.478;5.694;2023-04-03T11:41:16;1.80;;;0.70;;
46675;SDS011;32412;51.478;5.694;2023-04-03T12:52:19;2.22;;;0.90;;
46675;SDS011;32412;51.478;5.694;2023-04-03T12:54:55;3.38;;;1.13;;
46675;SDS011;32412;51.478;5.694;2023-04-03T13:06:56;3.90;;;0.98;;
46675;SDS011;32412;51.478;5.694;2023-04-03T13:09:28;2.67;;;1.00;;
46675;SDS011;32412;51.478;5.694;2023-04-03T13:14:38;1.77;;;1.00;;
46675;SDS011;32412;51.478;5.694;2023-04-03T13:20:38;1.88;;;0.90;;
46675;SDS011;32412;51.478;5.694;2023-04-03T13:23:07;5.10;;;0.90;;
46675;SDS011;32412;51.478;5.694;2023-04-03T13:25:40;1.88;;;0.93;;
46675;SDS011;32412;51.478;5.694;2023-04-03T13:35:02;2.30;;;1.10;;
46675;SDS011;32412;51.478;5.694;2023-04-03T13:37:55;4.80;;;0.82;;
46675;SDS011;32412;51.478;5.694;2023-04-03T13:40:58;1.70;;;0.80;;
46675;SDS011;32412;51.478;5.694;2023-04-03T13:43:37;3.45;;;0.98;;
46675;SDS011;32412;51.478;5.694;2023-04-03T13:51:27;3.25;;;1.00;;
46675;SDS011;32412;51.478;5.694;2023-04-03T13:57:20;3.80;;;1.00;;
46675;SDS011;32412;51.478;5.694;2023-04-03T13:59:50;4.28;;;1.35;;
46675;SDS011;32412;51.478;5.694;2023-04-03T14:05:18;2.00;;;0.90;;
46675;SDS011;32412;51.478;5.694;2023-04-03T14:11:13;2.40;;;1.00;;
46675;SDS011;32412;51.478;5.694;2023-04-03T14:13:59;3.03;;;1.05;;
46675;SDS011;32412;51.478;5.694;2023-04-03T14:16:43;1.20;;;1.00;;
46675;SDS011;32412;51.478;5.694;2023-04-03T14:19:22;2.35;;;1.45;;
46675;SDS011;32412;51.478;5.694;2023-04-03T14:21:59;2.90;;;1.10;;
46675;SDS011;32412;51.478;5.694;2023-04-03T14:24:56;1.85;;;0.90;;
46675;SDS011;32412;51.478;5.694;2023-04-03T14:30:26;1.63;;;1.00;;
46675;SDS011;32412;51.478;5.694;2023-04-03T14:32:54;4.50;;;0.93;;
46675;SDS011;32412;51.478;5.694;2023-04-03T14:35:20;1.95;;;1.10;;
46675;SDS011;32412;51.478;5.694;2023-04-03T14:37:47;4.00;;;1.13;;
46675;SDS011;32412;51.478;5.694;2023-04-03T14:40:18;2.67;;;0.95;;
46675;SDS011;32412;51.478;5.694;2023-04-03T14:42:47;1.02;;;0.70;;
46675;SDS011;32412;51.478;5.694;2023-04-03T14:45:14;3.42;;;1.15;;
46675;SDS011;32412;51.478;5.694;2023-04-03T14:47:46;2.38;;;1.00;;
46675;SDS011;32412;51.478;5.694;2023-04-03T14:50:15;3.20;;;1.05;;
46675;SDS011;32412;51.478;5.694;2023-04-03T14:52:43;1.48;;;0.98;;
46675;SDS011;32412;51.478;5.694;2023-04-03T14:55:10;4.30;;;0.82;;
46675;SDS011;32412;51.478;5.694;2023-04-03T14:57:37;3.22;;;0.98;;
46675;SDS011;32412;51.478;5.694;2023-04-03T15:00:04;5.05;;;1.20;;
46675;SDS011;32412;51.478;5.694;2023-04-03T15:02:34;2.72;;;1.15;;
46675;SDS011;32412;51.478;5.694;2023-04-03T15:05:03;2.28;;;1.00;;
46675;SDS011;32412;51.478;5.694;2023-04-03T15:07:32;2.83;;;1.13;;
46675;SDS011;32412;51.478;5.694;2023-04-03T15:10:22;1.15;;;0.90;;
46675;SDS011;32412;51.478;5.694;2023-04-03T15:12:51;2.90;;;1.20;;
46675;SDS011;32412;51.478;5.694;2023-04-03T15:15:17;3.22;;;1.42;;
46675;SDS011;32412;51.478;5.694;2023-04-03T15:17:45;5.30;;;1.20;;
46675;SDS011;32412;51.478;5.694;2023-04-03T15:22:40;2.65;;;1.13;;
46675;SDS011;32412;51.478;5.694;2023-04-03T15:25:06;2.13;;;1.30;;
46675;SDS011;32412;51.478;5.694;2023-04-03T15:27:32;2.33;;;1.15;;
46675;SDS011;32412;51.478;5.694;2023-04-03T15:29:58;1.75;;;1.00;;
46675;SDS011;32412;51.478;5.694;2023-04-03T15:32:23;3.67;;;1.00;;
46675;SDS011;32412;51.478;5.694;2023-04-03T15:34:57;2.78;;;1.20;;
46675;SDS011;32412;51.478;5.694;2023-04-03T15:37:23;3.97;;;0.95;;
46675;SDS011;32412;51.478;5.694;2023-04-03T15:39:49;3.45;;;1.25;;
46675;SDS011;32412;51.478;5.694;2023-04-03T15:42:19;1.80;;;0.90;;
46675;SDS011;32412;51.478;5.694;2023-04-03T18:41:16;21.75;;;2.10;;
46675;SDS011;32412;51.478;5.694;2023-04-03T18:43:46;17.63;;;2.65;;
46675;SDS011;32412;51.478;5.694;2023-04-03T18:46:12;7.70;;;1.35;;
46675;SDS011;32412;51.478;5.694;2023-04-03T18:48:38;4.82;;;1.35;;
46675;SDS011;32412;51.478;5.694;2023-04-03T18:51:09;3.05;;;1.02;;
46675;SDS011;32412;51.478;5.694;2023-04-03T18:53:37;4.85;;;1.10;;
46675;SDS011;32412;51.478;5.694;2023-04-03T18:56:03;4.00;;;1.20;;
46675;SDS011;32412;51.478;5.694;2023-04-03T18:58:29;4.63;;;1.33;;
46675;SDS011;32412;51.478;5.694;2023-04-03T19:00:56;3.47;;;1.40;;
46675;SDS011;32412;51.478;5.694;2023-04-03T19:03:23;2.90;;;1.15;;
46675;SDS011;32412;51.478;5.694;2023-04-03T19:05:49;8.55;;;1.67;;
46675;SDS011;32412;51.478;5.694;2023-04-03T19:08:15;2.63;;;1.30;;
46675;SDS011;32412;51.478;5.694;2023-04-03T19:10:41;4.10;;;1.60;;
46675;SDS011;32412;51.478;5.694;2023-04-03T19:13:07;2.38;;;1.40;;
46675;SDS011;32412;51.478;5.694;2023-04-03T19:15:33;6.13;;;1.50;;
46675;SDS011;32412;51.478;5.694;2023-04-03T19:21:24;3.35;;;1.00;;
46675;SDS011;32412;51.478;5.694;2023-04-03T19:23:50;2.95;;;1.27;;
46675;SDS011;32412;51.478;5.694;2023-04-03T19:26:37;1.83;;;1.00;;
46675;SDS011;32412;51.478;5.694;2023-04-03T19:29:06;3.08;;;1.10;;
46675;SDS011;32412;51.478;5.694;2023-04-03T19:31:32;3.58;;;1.17;;
46675;SDS011;32412;51.478;5.694;2023-04-03T19:34:01;4.05;;;1.25;;
46675;SDS011;32412;51.478;5.694;2023-04-03T19:36:28;4.18;;;1.30;;
46675;SDS011;32412;51.478;5.694;2023-04-03T19:38:55;2.13;;;1.17;;
46675;SDS011;32412;51.478;5.694;2023-04-03T19:41:34;4.78;;;1.30;;
46675;SDS011;32412;51.478;5.694;2023-04-03T19:44:07;3.55;;;1.40;;
46675;SDS011;32412;51.478;5.694;2023-04-03T19:55:28;2.30;;;1.27;;
46675;SDS011;32412;51.478;5.694;2023-04-03T20:14:58;3.65;;;1.17;;
46675;SDS011;32412;51.478;5.694;2023-04-03T20:17:29;5.05;;;1.40;;
